Faringdon, United Kingdom
Current Conditions -  °F | °C
As of 2:50 AM on Friday 19 Dec 2014 (Local Time) from EGVN Reporting Station
Light Rain Light Rain  
Wind Chill: 12°   Ceiling: 1200
Heat Index: 12°   Visibility: 4mi
Dew Point: 11°   Wind: 12mph
Humidity: 94%   Direction: 240°WSW
Pressure: 29.74"   Gusts: NA
Location:  51.66°N, 1.59°W
Report Text: EGVN 190250Z 24010KT 6000 -RADZ SCT006 OVC012 12/11 Q1007 YLO1 TEMPO 4000 RADZ YLO1
Loading
Personal Weather Stations






























Interactive Weather Map New forecast layout! Learn more

10-Day Weather Forecast

Advertisements
Track Severe Weather on mobile